createdAt,value
2018-03-27T00:00:25.297Z,72.18
2018-03-27T00:02:51.081Z,72.29
2018-03-27T00:05:16.842Z,72.47
2018-03-27T00:07:42.588Z,72.65
2018-03-27T00:10:08.405Z,72.73
2018-03-27T00:12:34.156Z,72.42
2018-03-27T00:14:59.905Z,72.16
2018-03-27T00:17:25.657Z,71.97
2018-03-27T00:19:51.959Z,71.92
2018-03-27T00:22:17.723Z,71.99
2018-03-27T00:24:43.512Z,71.98
2018-03-27T00:27:09.178Z,71.96
2018-03-27T00:29:47.296Z,72.02
2018-03-27T00:32:25.302Z,72.14
2018-03-27T00:35:03.304Z,71.95
2018-03-27T00:37:41.564Z,71.81
2018-03-27T00:40:19.541Z,71.93
2018-03-27T00:42:50.161Z,72.06
2018-03-27T00:45:15.924Z,72.15
2018-03-27T00:47:41.677Z,72.14
2018-03-27T00:50:08.025Z,72.16
2018-03-27T00:52:33.798Z,72.13
2018-03-27T00:54:59.550Z,72.03
2018-03-27T00:57:25.331Z,72.14
2018-03-27T00:59:51.112Z,72.30
2018-03-27T01:02:16.883Z,72.22
2018-03-27T01:04:42.628Z,72.19
2018-03-27T01:07:08.401Z,72.15
2018-03-27T01:09:34.165Z,72.00
2018-03-27T01:11:59.917Z,71.90
2018-03-27T01:14:25.694Z,71.65
2018-03-27T01:16:51.438Z,71.74
2018-03-27T01:19:17.449Z,71.67
2018-03-27T01:21:43.240Z,71.78
2018-03-27T01:24:08.992Z,72.09
2018-03-27T01:26:34.752Z,72.37
2018-03-27T01:29:00.518Z,72.46
2018-03-27T01:31:26.266Z,72.01
2018-03-27T01:33:52.029Z,71.97
2018-03-27T01:36:17.921Z,72.17
2018-03-27T01:38:43.673Z,72.16
2018-03-27T01:41:09.432Z,72.00
2018-03-27T01:43:35.174Z,71.87
2018-03-27T01:46:00.921Z,71.38
2018-03-27T01:48:26.713Z,71.14
2018-03-27T01:50:52.478Z,71.30
2018-03-27T01:53:18.437Z,71.69
2018-03-27T01:55:44.205Z,72.03
2018-03-27T01:58:09.955Z,72.17
2018-03-27T02:00:35.693Z,71.98
2018-03-27T02:03:01.466Z,71.94
2018-03-27T02:05:27.263Z,72.15
2018-03-27T02:07:53.025Z,72.42
2018-03-27T02:10:18.826Z,72.53
2018-03-27T02:12:50.688Z,72.72
2018-03-27T02:15:22.558Z,72.40
2018-03-27T02:17:54.463Z,72.20
2018-03-27T02:20:41.461Z,72.28
2018-03-27T02:23:09.345Z,72.41
2018-03-27T02:25:35.097Z,72.45
2018-03-27T02:28:01.805Z,72.37
2018-03-27T02:30:27.556Z,72.39
2018-03-27T02:32:53.306Z,72.50
2018-03-27T02:35:19.073Z,72.50
2018-03-27T02:37:44.842Z,72.48
2018-03-27T02:40:10.602Z,72.17
2018-03-27T02:42:36.375Z,71.64
2018-03-27T02:45:02.139Z,71.93
2018-03-27T02:47:27.881Z,72.34
2018-03-27T02:49:54.141Z,72.29
2018-03-27T02:52:19.902Z,72.71
2018-03-27T02:54:45.649Z,72.85
2018-03-27T02:57:11.457Z,72.89
2018-03-27T02:59:37.226Z,72.87
2018-03-27T03:02:02.995Z,72.71
2018-03-27T03:04:28.787Z,72.83
2018-03-27T03:06:54.554Z,72.88
2018-03-27T03:09:20.321Z,72.59
2018-03-27T03:11:46.084Z,72.34
2018-03-27T03:14:11.852Z,71.91
2018-03-27T03:16:37.604Z,71.88
2018-03-27T03:19:03.577Z,72.03
2018-03-27T03:21:29.313Z,72.17
2018-03-27T03:23:55.061Z,72.11
2018-03-27T03:26:20.844Z,71.76
2018-03-27T03:28:46.576Z,71.93
2018-03-27T03:31:12.314Z,72.16
2018-03-27T03:33:38.090Z,72.29
2018-03-27T03:36:03.850Z,72.07
2018-03-27T03:38:29.594Z,72.10
2018-03-27T03:40:55.342Z,72.07
2018-03-27T03:43:21.101Z,72.34
2018-03-27T03:45:46.861Z,72.42
2018-03-27T03:48:12.633Z,72.64
2018-03-27T03:50:38.566Z,72.74
2018-03-27T03:53:04.409Z,72.69
2018-03-27T03:55:30.096Z,72.67
2018-03-27T03:57:55.836Z,72.34
2018-03-27T04:00:21.603Z,72.02
2018-03-27T04:02:47.353Z,71.98
2018-03-27T04:05:13.132Z,72.06
2018-03-27T04:07:38.893Z,72.06
2018-03-27T04:10:04.667Z,72.02
2018-03-27T04:12:30.425Z,71.93
2018-03-27T04:14:56.194Z,71.97
2018-03-27T04:17:21.952Z,71.81
2018-03-27T04:19:47.756Z,71.92
2018-03-27T04:22:13.908Z,71.80
2018-03-27T04:24:39.694Z,71.63
2018-03-27T04:27:05.443Z,71.63
2018-03-27T04:29:31.236Z,71.75
2018-03-27T04:31:56.975Z,71.55
2018-03-27T04:34:22.728Z,71.53
2018-03-27T04:36:48.499Z,71.67
2018-03-27T04:39:14.245Z,73.65
2018-03-27T04:41:39.993Z,73.05
2018-03-27T04:44:05.771Z,72.49
2018-03-27T04:46:31.516Z,73.67
2018-03-27T04:48:57.283Z,72.44
2018-03-27T04:51:23.313Z,72.07
2018-03-27T04:53:49.060Z,71.26
2018-03-27T04:56:14.814Z,71.18
2018-03-27T04:58:40.570Z,70.90
2018-03-27T05:01:06.333Z,70.70
2018-03-27T05:03:32.082Z,70.67
2018-03-27T05:05:57.868Z,70.60
2018-03-27T05:08:23.618Z,70.72
2018-03-27T05:10:49.399Z,70.62
2018-03-27T05:13:15.154Z,70.72
2018-03-27T05:15:40.908Z,70.59
2018-03-27T05:18:07.111Z,70.62
2018-03-27T05:20:32.881Z,70.57
2018-03-27T05:22:58.628Z,70.49
2018-03-27T05:25:24.389Z,70.49
2018-03-27T05:27:50.173Z,70.51
2018-03-27T05:30:15.917Z,71.11
2018-03-27T05:32:41.677Z,71.29
2018-03-27T05:35:07.969Z,71.33
2018-03-27T05:37:33.741Z,70.84
2018-03-27T05:39:59.484Z,70.86
2018-03-27T05:42:25.261Z,70.86
2018-03-27T05:44:51.009Z,70.65
2018-03-27T05:47:16.750Z,70.48
2018-03-27T05:49:42.513Z,70.36
2018-03-27T05:52:08.253Z,70.52
2018-03-27T05:54:34.009Z,70.60
2018-03-27T05:57:00.073Z,70.47
2018-03-27T05:59:25.833Z,70.40
2018-03-27T06:01:51.601Z,70.40
2018-03-27T06:04:17.361Z,70.09
2018-03-27T06:06:43.111Z,70.03
2018-03-27T06:09:08.905Z,70.27
2018-03-27T06:11:34.681Z,70.47
2018-03-27T06:14:00.433Z,70.57
2018-03-27T06:16:26.209Z,70.46
2018-03-27T06:18:51.991Z,70.55
2018-03-27T06:21:17.733Z,70.48
2018-03-27T06:23:43.497Z,70.31
2018-03-27T06:26:09.449Z,70.22
2018-03-27T06:28:35.197Z,69.99
2018-03-27T06:31:00.982Z,69.86
2018-03-27T06:33:26.746Z,69.98
2018-03-27T06:35:52.501Z,69.80
2018-03-27T06:38:18.246Z,69.35
2018-03-27T06:40:44.025Z,68.93
2018-03-27T06:43:09.775Z,68.72
2018-03-27T06:45:35.533Z,68.52
2018-03-27T06:48:01.509Z,68.19
2018-03-27T06:50:27.257Z,68.20
2018-03-27T06:52:53.383Z,67.99
2018-03-27T06:55:19.188Z,67.69
2018-03-27T06:57:44.918Z,67.67
2018-03-27T07:00:10.693Z,67.69
2018-03-27T07:02:36.472Z,67.46
2018-03-27T07:05:02.229Z,67.00
2018-03-27T07:07:27.991Z,66.91
2018-03-27T07:09:53.767Z,66.84
2018-03-27T07:12:19.500Z,66.69
2018-03-27T07:14:45.246Z,66.04
2018-03-27T07:17:11.332Z,65.99
2018-03-27T07:19:37.076Z,66.15
2018-03-27T07:22:02.837Z,66.09
2018-03-27T07:24:28.605Z,65.89
2018-03-27T07:26:54.357Z,65.73
2018-03-27T07:29:20.136Z,65.35
2018-03-27T07:31:46.089Z,65.15
2018-03-27T07:34:12.605Z,65.45
2018-03-27T07:36:38.414Z,65.38
2018-03-27T07:39:04.432Z,65.05
2018-03-27T07:41:30.190Z,64.72
2018-03-27T07:43:55.964Z,64.46
2018-03-27T07:46:21.745Z,64.23
2018-03-27T07:48:47.503Z,64.19
2018-03-27T07:51:13.491Z,63.97
2018-03-27T07:53:39.272Z,63.44
2018-03-27T07:56:05.045Z,63.21
2018-03-27T07:58:30.793Z,63.08
2018-03-27T08:00:56.610Z,62.84
2018-03-27T08:03:22.345Z,62.47
2018-03-27T08:05:48.118Z,62.20
2018-03-27T08:08:14.042Z,61.55
2018-03-27T08:10:39.789Z,61.26
2018-03-27T08:13:05.545Z,60.94
2018-03-27T08:15:31.301Z,60.96
2018-03-27T08:17:57.037Z,60.41
2018-03-27T08:20:22.835Z,60.25
2018-03-27T08:22:48.572Z,60.13
2018-03-27T08:25:14.554Z,59.72
2018-03-27T08:27:40.322Z,59.35
2018-03-27T08:30:06.068Z,58.82
2018-03-27T08:32:31.840Z,58.73
2018-03-27T08:34:57.672Z,58.77
2018-03-27T08:37:23.409Z,58.67
2018-03-27T08:39:49.155Z,58.03
2018-03-27T08:42:14.912Z,57.88
2018-03-27T08:44:40.660Z,57.73
2018-03-27T08:47:06.441Z,57.26
2018-03-27T08:49:32.200Z,57.07
2018-03-27T08:51:58.260Z,56.69
2018-03-27T08:54:24.022Z,56.29
2018-03-27T08:56:49.777Z,55.88
2018-03-27T08:59:15.545Z,55.87
2018-03-27T09:01:41.309Z,55.59
2018-03-27T09:04:07.046Z,55.02
2018-03-27T09:06:32.790Z,54.96
2018-03-27T09:08:58.546Z,54.32
2018-03-27T09:11:24.277Z,53.43
2018-03-27T09:13:50.037Z,53.57
2018-03-27T09:16:15.849Z,52.97
2018-03-27T09:18:41.613Z,51.90
2018-03-27T09:21:07.353Z,51.98
2018-03-27T09:23:33.112Z,51.87
2018-03-27T09:25:59.128Z,50.95
2018-03-27T09:28:24.877Z,49.91
2018-03-27T09:30:50.657Z,50.35
2018-03-27T09:33:16.410Z,50.36
2018-03-27T09:35:42.182Z,50.40
2018-03-27T09:38:07.975Z,50.40
2018-03-27T09:40:33.728Z,50.51
2018-03-27T09:42:59.491Z,51.23
2018-03-27T09:45:25.249Z,51.45
2018-03-27T09:47:51.008Z,51.02
2018-03-27T09:50:17.207Z,50.70
2018-03-27T09:52:42.959Z,50.34
2018-03-27T09:55:08.723Z,49.82
2018-03-27T09:57:34.485Z,49.03
2018-03-27T10:00:00.242Z,48.87
2018-03-27T10:02:25.994Z,48.61
2018-03-27T10:04:51.757Z,48.29
2018-03-27T10:07:17.501Z,47.67
2018-03-27T10:09:43.252Z,48.14
2018-03-27T10:12:09.017Z,48.13
2018-03-27T10:14:34.788Z,47.77
2018-03-27T10:17:00.573Z,47.85
2018-03-27T10:19:26.523Z,48.20
2018-03-27T10:21:52.274Z,48.02
2018-03-27T10:24:18.039Z,47.48
2018-03-27T10:26:43.804Z,48.18
2018-03-27T10:29:09.537Z,48.38
2018-03-27T10:31:35.273Z,47.86
2018-03-27T10:34:01.063Z,47.43
2018-03-27T10:36:26.809Z,46.73
2018-03-27T10:38:52.545Z,46.62
2018-03-27T10:41:18.321Z,46.45
2018-03-27T10:43:44.063Z,46.29
2018-03-27T10:46:09.863Z,45.92
2018-03-27T10:48:35.615Z,45.28
2018-03-27T10:51:01.654Z,44.89
2018-03-27T10:53:27.412Z,43.62
2018-03-27T10:55:53.177Z,43.56
2018-03-27T10:58:18.921Z,43.45
2018-03-27T11:00:44.676Z,43.40
2018-03-27T11:03:10.434Z,43.24
2018-03-27T11:05:36.181Z,42.83
2018-03-27T11:08:01.941Z,42.60
2018-03-27T11:10:27.699Z,43.11
2018-03-27T11:12:53.468Z,43.26
2018-03-27T11:15:19.201Z,43.09
2018-03-27T11:17:45.074Z,42.49
2018-03-27T11:20:10.829Z,41.80
2018-03-27T11:22:36.605Z,42.12
2018-03-27T11:25:02.361Z,42.21
2018-03-27T11:27:28.150Z,41.42
2018-03-27T11:29:53.893Z,40.76
2018-03-27T11:32:19.641Z,40.56
2018-03-27T11:34:45.785Z,39.22
2018-03-27T11:37:11.559Z,38.66
2018-03-27T11:39:37.300Z,38.22
2018-03-27T11:42:03.085Z,37.18
2018-03-27T11:44:28.834Z,37.37
2018-03-27T11:46:54.584Z,37.34
2018-03-27T11:49:20.334Z,36.66
2018-03-27T11:51:46.105Z,36.48
2018-03-27T11:54:11.871Z,36.01
2018-03-27T11:56:37.634Z,35.79
2018-03-27T11:59:03.676Z,35.27
2018-03-27T12:01:29.441Z,35.10
2018-03-27T12:03:55.189Z,34.39
2018-03-27T12:06:20.950Z,34.14
2018-03-27T12:08:46.697Z,33.55
2018-03-27T12:11:12.471Z,32.65
2018-03-27T12:13:38.233Z,32.42
2018-03-27T12:16:03.974Z,32.21
2018-03-27T12:18:30.010Z,32.75
2018-03-27T12:20:55.769Z,31.99
2018-03-27T12:23:21.525Z,32.01
2018-03-27T12:25:47.298Z,32.40
2018-03-27T12:28:13.046Z,32.23
2018-03-27T12:30:38.801Z,32.21
2018-03-27T12:33:04.561Z,32.19
2018-03-27T12:35:30.622Z,32.20
2018-03-27T12:37:56.393Z,32.07
2018-03-27T12:40:22.312Z,32.24
2018-03-27T12:42:48.137Z,32.59
2018-03-27T12:45:13.888Z,32.58
2018-03-27T12:47:39.672Z,32.37
2018-03-27T12:50:05.431Z,32.37
2018-03-27T12:52:31.206Z,32.15
2018-03-27T12:54:57.289Z,32.06
2018-03-27T12:57:23.057Z,31.72
2018-03-27T12:59:48.818Z,31.26
2018-03-27T13:02:14.573Z,31.15
2018-03-27T13:04:40.326Z,31.37
2018-03-27T13:07:06.076Z,31.58
2018-03-27T13:09:31.859Z,31.89
2018-03-27T13:11:57.600Z,31.84
2018-03-27T13:14:23.354Z,31.63
2018-03-27T13:16:49.121Z,31.84
2018-03-27T13:19:14.890Z,31.88
2018-03-27T13:21:40.881Z,32.31
2018-03-27T13:24:06.653Z,32.36
2018-03-27T13:26:32.401Z,32.34
2018-03-27T13:28:58.145Z,33.04
2018-03-27T13:31:23.905Z,33.37
2018-03-27T13:33:49.648Z,33.52
2018-03-27T13:36:15.431Z,34.30
2018-03-27T13:38:41.204Z,34.85
2018-03-27T13:41:06.953Z,34.71
2018-03-27T13:43:32.698Z,34.41
2018-03-27T13:45:58.465Z,34.92
2018-03-27T13:48:24.569Z,34.85
2018-03-27T13:50:50.321Z,34.93
2018-03-27T13:53:16.074Z,34.13
2018-03-27T13:55:41.825Z,33.95
2018-03-27T13:58:07.577Z,34.06
2018-03-27T14:00:33.361Z,34.29
2018-03-27T14:02:59.117Z,34.05
2018-03-27T14:05:25.405Z,34.36
2018-03-27T14:07:51.205Z,34.46
2018-03-27T14:10:16.984Z,35.07
2018-03-27T14:12:42.750Z,35.38
2018-03-27T14:15:08.499Z,35.25
2018-03-27T14:17:34.260Z,34.76
2018-03-27T14:20:00.023Z,34.62
2018-03-27T14:22:25.796Z,34.24
2018-03-27T14:24:51.772Z,34.39
2018-03-27T14:27:17.549Z,34.62
2018-03-27T14:29:43.289Z,34.72
2018-03-27T14:32:09.058Z,34.74
2018-03-27T14:34:34.829Z,34.34
2018-03-27T14:37:00.568Z,34.73
2018-03-27T14:39:26.320Z,34.73
2018-03-27T14:41:52.073Z,35.14
2018-03-27T14:44:17.829Z,35.42
2018-03-27T14:46:43.610Z,34.86
2018-03-27T14:49:09.354Z,34.80
2018-03-27T14:51:35.252Z,34.07
2018-03-27T14:54:01.046Z,34.20
2018-03-27T14:56:26.793Z,34.20
2018-03-27T14:58:52.566Z,33.90
2018-03-27T15:01:18.396Z,33.82
2018-03-27T15:03:44.314Z,33.29
2018-03-27T15:06:10.085Z,33.69
2018-03-27T15:08:35.856Z,34.36
2018-03-27T15:11:01.593Z,34.62
2018-03-27T15:13:27.337Z,34.07
2018-03-27T15:15:53.108Z,34.40
2018-03-27T15:18:18.884Z,34.10
2018-03-27T15:20:44.886Z,34.45
2018-03-27T15:23:10.673Z,34.32
2018-03-27T15:25:36.453Z,34.60
2018-03-27T15:28:02.226Z,34.79
2018-03-27T15:30:28.005Z,34.61
2018-03-27T15:32:53.763Z,34.46
2018-03-27T15:35:19.533Z,34.52
2018-03-27T15:37:45.725Z,34.34
2018-03-27T15:40:11.480Z,34.52
2018-03-27T15:42:37.229Z,34.64
2018-03-27T15:45:02.990Z,34.54
2018-03-27T15:47:28.748Z,34.87
2018-03-27T15:49:54.529Z,34.62
2018-03-27T15:52:20.309Z,34.70
2018-03-27T15:54:46.235Z,34.73
2018-03-27T15:57:12.001Z,34.67
2018-03-27T15:59:37.745Z,34.85
2018-03-27T16:02:03.504Z,35.17
2018-03-27T16:04:29.278Z,35.32
2018-03-27T16:06:55.040Z,34.99
2018-03-27T16:09:20.828Z,34.91
2018-03-27T16:11:46.589Z,35.26
2018-03-27T16:14:12.329Z,35.33
2018-03-27T16:16:38.101Z,35.95
2018-03-27T16:19:04.287Z,35.86
2018-03-27T16:21:30.046Z,36.24
2018-03-27T16:23:55.796Z,36.53
2018-03-27T16:26:21.560Z,35.69
2018-03-27T16:28:47.303Z,36.04
2018-03-27T16:31:13.051Z,36.26
2018-03-27T16:33:38.817Z,36.27
2018-03-27T16:36:04.905Z,35.99
2018-03-27T16:38:30.657Z,35.81
2018-03-27T16:40:56.434Z,36.16
2018-03-27T16:43:22.180Z,36.15
2018-03-27T16:45:47.938Z,36.34
2018-03-27T16:48:13.695Z,36.60
2018-03-27T16:50:39.467Z,36.40
2018-03-27T16:53:05.208Z,36.36
2018-03-27T16:55:31.217Z,36.60
2018-03-27T16:57:56.999Z,36.65
2018-03-27T17:00:22.733Z,37.00
2018-03-27T17:02:48.528Z,37.04
2018-03-27T17:05:14.293Z,37.43
2018-03-27T17:07:40.027Z,37.27
2018-03-27T17:10:05.796Z,37.60
2018-03-27T17:12:31.561Z,37.75
2018-03-27T17:15:05.459Z,37.72
2018-03-27T17:17:31.235Z,37.95
2018-03-27T17:19:56.993Z,38.01
2018-03-27T17:22:22.764Z,38.16
2018-03-27T17:24:48.518Z,38.17
2018-03-27T17:27:14.418Z,38.27
2018-03-27T17:29:40.182Z,38.53
2018-03-27T17:32:05.918Z,39.25
2018-03-27T17:34:31.670Z,39.88
2018-03-27T17:36:57.439Z,40.36
2018-03-27T17:39:23.196Z,40.57
2018-03-27T17:41:48.947Z,40.82
2018-03-27T17:44:14.700Z,41.07
2018-03-27T17:46:40.449Z,41.05
2018-03-27T17:49:06.199Z,41.35
2018-03-27T17:51:32.019Z,41.43
2018-03-27T17:53:57.805Z,41.73
2018-03-27T17:56:23.885Z,41.92
2018-03-27T17:58:49.676Z,42.07
2018-03-27T18:01:15.453Z,42.11
2018-03-27T18:03:41.217Z,42.20
2018-03-27T18:06:07.005Z,42.56
2018-03-27T18:08:32.753Z,42.88
2018-03-27T18:10:58.501Z,43.42
2018-03-27T18:13:24.263Z,43.80
2018-03-27T18:15:50.025Z,44.11
2018-03-27T18:18:15.794Z,44.58
2018-03-27T18:20:41.571Z,44.61
2018-03-27T18:23:07.587Z,44.72
2018-03-27T18:25:33.366Z,44.72
2018-03-27T18:27:59.137Z,44.90
2018-03-27T18:30:24.900Z,45.15
2018-03-27T18:32:50.669Z,45.35
2018-03-27T18:35:16.401Z,45.57
2018-03-27T18:37:42.154Z,45.75
2018-03-27T18:40:08.402Z,45.98
2018-03-27T18:42:34.205Z,46.15
2018-03-27T18:44:59.954Z,46.35
2018-03-27T18:47:25.729Z,46.64
2018-03-27T18:49:51.478Z,46.92
2018-03-27T18:52:17.238Z,47.27
2018-03-27T18:54:43.008Z,47.65
2018-03-27T18:57:09.017Z,47.85
2018-03-27T18:59:34.777Z,48.15
2018-03-27T19:02:00.545Z,48.33
2018-03-27T19:04:26.287Z,48.50
2018-03-27T19:06:52.047Z,48.51
2018-03-27T19:09:17.848Z,48.76
2018-03-27T19:11:43.659Z,48.93
2018-03-27T19:14:09.447Z,48.93
2018-03-27T19:16:35.209Z,48.97
2018-03-27T19:19:00.965Z,49.27
2018-03-27T19:21:27.129Z,49.53
2018-03-27T19:23:52.881Z,49.92
2018-03-27T19:26:18.643Z,50.10
2018-03-27T19:28:44.404Z,50.34
2018-03-27T19:31:10.169Z,50.57
2018-03-27T19:33:35.919Z,50.75
2018-03-27T19:36:01.673Z,50.95
2018-03-27T19:38:27.433Z,51.12
2018-03-27T19:40:53.195Z,51.22
2018-03-27T19:43:18.973Z,51.25
2018-03-27T19:45:44.719Z,51.28
2018-03-27T19:48:10.533Z,51.48
2018-03-27T19:50:36.721Z,51.71
2018-03-27T19:53:02.526Z,51.99
2018-03-27T19:55:28.265Z,52.05
2018-03-27T19:57:54.032Z,52.17
2018-03-27T20:00:19.795Z,52.14
2018-03-27T20:02:45.553Z,52.24
2018-03-27T20:05:11.330Z,52.55
2018-03-27T20:07:37.429Z,52.86
2018-03-27T20:10:03.200Z,53.22
2018-03-27T20:12:28.952Z,53.59
2018-03-27T20:14:54.717Z,53.54
2018-03-27T20:17:20.505Z,53.67
2018-03-27T20:19:46.277Z,53.64
2018-03-27T20:22:12.021Z,53.67
2018-03-27T20:24:37.757Z,53.70
2018-03-27T20:27:04.003Z,53.78
2018-03-27T20:29:29.765Z,53.69
2018-03-27T20:31:55.523Z,53.66
2018-03-27T20:34:21.296Z,53.66
2018-03-27T20:36:47.053Z,53.89
2018-03-27T20:39:12.833Z,53.94
2018-03-27T20:41:38.590Z,54.07
2018-03-27T20:44:04.345Z,54.10
2018-03-27T20:46:30.103Z,54.24
2018-03-27T20:48:55.953Z,54.43
2018-03-27T20:51:21.645Z,54.47
2018-03-27T20:53:47.417Z,54.43
2018-03-27T20:56:13.841Z,54.51
2018-03-27T20:58:39.586Z,54.63
2018-03-27T21:01:05.328Z,54.59
2018-03-27T21:03:31.101Z,54.73
2018-03-27T21:05:56.857Z,54.72
2018-03-27T21:08:22.621Z,54.75
2018-03-27T21:10:48.392Z,54.36
2018-03-27T21:13:14.153Z,54.39
2018-03-27T21:15:39.910Z,54.45
2018-03-27T21:18:05.769Z,54.51
2018-03-27T21:20:31.550Z,54.54
2018-03-27T21:22:57.305Z,54.37
2018-03-27T21:25:23.441Z,54.46
2018-03-27T21:27:49.218Z,54.51
2018-03-27T21:30:15.013Z,54.62
2018-03-27T21:32:40.773Z,54.55
2018-03-27T21:35:06.568Z,54.72
2018-03-27T21:37:32.313Z,54.75
2018-03-27T21:39:58.085Z,54.88
2018-03-27T21:42:23.850Z,54.83
2018-03-27T21:44:49.590Z,54.73
2018-03-27T21:47:15.369Z,54.79
2018-03-27T21:49:41.125Z,54.68
2018-03-27T21:52:06.934Z,54.76
2018-03-27T21:54:33.172Z,54.96
2018-03-27T21:56:58.949Z,54.97
2018-03-27T21:59:24.777Z,54.93
2018-03-27T22:01:50.798Z,54.99
2018-03-27T22:04:16.550Z,55.14
2018-03-27T22:06:42.305Z,55.29
2018-03-27T22:09:08.113Z,55.28
2018-03-27T22:11:40.789Z,55.46
2018-03-27T22:14:06.540Z,55.38
2018-03-27T22:16:32.318Z,55.46
2018-03-27T22:18:58.078Z,55.69
2018-03-27T22:21:23.874Z,55.93
2018-03-27T22:23:49.915Z,55.98
2018-03-27T22:26:16.558Z,56.07
2018-03-27T22:28:42.310Z,56.17
2018-03-27T22:31:08.080Z,56.11
2018-03-27T22:33:33.879Z,55.87
2018-03-27T22:35:59.625Z,55.86
2018-03-27T22:38:25.377Z,55.81
2018-03-27T22:40:51.140Z,56.08
2018-03-27T22:43:16.875Z,55.90
2018-03-27T22:45:42.637Z,55.92
2018-03-27T22:48:08.415Z,55.97
2018-03-27T22:50:34.780Z,55.93
2018-03-27T22:53:00.536Z,56.19
2018-03-27T22:55:26.289Z,56.36
2018-03-27T22:57:52.029Z,56.33
2018-03-27T23:00:17.801Z,56.35
2018-03-27T23:02:43.555Z,56.40
2018-03-27T23:05:09.305Z,56.38
2018-03-27T23:07:35.517Z,56.44
2018-03-27T23:10:01.277Z,56.51
2018-03-27T23:12:27.033Z,56.46
2018-03-27T23:14:52.809Z,56.46
2018-03-27T23:17:18.563Z,56.45
2018-03-27T23:19:44.329Z,56.54
2018-03-27T23:22:10.102Z,56.58
2018-03-27T23:24:35.853Z,56.62
2018-03-27T23:27:01.984Z,56.40
2018-03-27T23:29:27.766Z,56.32
2018-03-27T23:31:53.513Z,56.23
2018-03-27T23:34:19.270Z,56.12
2018-03-27T23:36:45.048Z,56.25
2018-03-27T23:39:10.808Z,56.12
2018-03-27T23:41:36.581Z,56.13
2018-03-27T23:44:02.333Z,56.29
2018-03-27T23:46:28.081Z,56.51
2018-03-27T23:48:53.840Z,56.47
2018-03-27T23:51:19.612Z,56.64
2018-03-27T23:53:45.751Z,56.90
2018-03-27T23:56:11.541Z,57.07
2018-03-27T23:58:37.288Z,56.82
